sensor_id;sensor_type;location;lat;lon;timestamp;temperature;humidity
21744;DHT22;11034;48.556;9.342;2023-04-22T00:02:06;13.10;99.90
21744;DHT22;11034;48.556;9.342;2023-04-22T00:04:35;13.20;99.90
21744;DHT22;11034;48.556;9.342;2023-04-22T00:07:04;13.20;99.90
21744;DHT22;11034;48.556;9.342;2023-04-22T00:09:32;13.20;99.90
21744;DHT22;11034;48.556;9.342;2023-04-22T00:12:01;13.30;99.90
21744;DHT22;11034;48.556;9.342;2023-04-22T00:14:29;13.30;99.90
21744;DHT22;11034;48.556;9.342;2023-04-22T00:16:58;13.40;99.90
21744;DHT22;11034;48.556;9.342;2023-04-22T00:19:26;13.30;99.90
21744;DHT22;11034;48.556;9.342;2023-04-22T00:21:55;13.30;99.90
21744;DHT22;11034;48.556;9.342;2023-04-22T00:24:24;13.20;99.90
21744;DHT22;11034;48.556;9.342;2023-04-22T00:26:52;13.30;99.90
21744;DHT22;11034;48.556;9.342;2023-04-22T00:29:20;13.30;99.90
21744;DHT22;11034;48.556;9.342;2023-04-22T00:31:48;13.30;99.90
21744;DHT22;11034;48.556;9.342;2023-04-22T00:34:17;13.30;99.90
21744;DHT22;11034;48.556;9.342;2023-04-22T00:36:45;13.30;99.90
21744;DHT22;11034;48.556;9.342;2023-04-22T00:39:14;13.30;99.90
21744;DHT22;11034;48.556;9.342;2023-04-22T00:41:43;13.20;99.90
21744;DHT22;11034;48.556;9.342;2023-04-22T00:44:11;13.30;99.90
21744;DHT22;11034;48.556;9.342;2023-04-22T00:46:39;13.20;99.90
21744;DHT22;11034;48.556;9.342;2023-04-22T00:49:07;13.30;99.90
21744;DHT22;11034;48.556;9.342;2023-04-22T00:51:36;13.30;99.90
21744;DHT22;11034;48.556;9.342;2023-04-22T00:54:04;13.40;99.90
21744;DHT22;11034;48.556;9.342;2023-04-22T00:56:37;13.40;99.90
21744;DHT22;11034;48.556;9.342;2023-04-22T00:59:07;13.40;99.90
21744;DHT22;11034;48.556;9.342;2023-04-22T01:01:39;13.40;99.90
21744;DHT22;11034;48.556;9.342;2023-04-22T01:04:08;13.30;99.90
21744;DHT22;11034;48.556;9.342;2023-04-22T01:06:38;13.20;99.90
21744;DHT22;11034;48.556;9.342;2023-04-22T01:09:07;13.20;99.90
21744;DHT22;11034;48.556;9.342;2023-04-22T01:11:37;13.20;99.90
21744;DHT22;11034;48.556;9.342;2023-04-22T01:14:05;13.00;99.90
21744;DHT22;11034;48.556;9.342;2023-04-22T01:16:34;12.80;99.90
21744;DHT22;11034;48.556;9.342;2023-04-22T01:19:04;12.60;99.90
21744;DHT22;11034;48.556;9.342;2023-04-22T01:21:34;12.40;99.90
21744;DHT22;11034;48.556;9.342;2023-04-22T01:24:09;12.10;99.90
21744;DHT22;11034;48.556;9.342;2023-04-22T01:26:38;12.00;99.90
21744;DHT22;11034;48.556;9.342;2023-04-22T01:29:06;11.90;99.90
21744;DHT22;11034;48.556;9.342;2023-04-22T01:31:35;11.80;99.90
21744;DHT22;11034;48.556;9.342;2023-04-22T01:34:03;11.80;99.90
21744;DHT22;11034;48.556;9.342;2023-04-22T01:36:31;11.80;99.90
21744;DHT22;11034;48.556;9.342;2023-04-22T01:39:00;11.80;99.90
21744;DHT22;11034;48.556;9.342;2023-04-22T01:41:30;11.80;99.90
21744;DHT22;11034;48.556;9.342;2023-04-22T01:43:59;11.90;99.90
21744;DHT22;11034;48.556;9.342;2023-04-22T01:46:29;12.00;99.90
21744;DHT22;11034;48.556;9.342;2023-04-22T01:48:58;12.20;99.90
21744;DHT22;11034;48.556;9.342;2023-04-22T01:51:26;12.30;99.90
21744;DHT22;11034;48.556;9.342;2023-04-22T01:53:54;12.50;99.90
21744;DHT22;11034;48.556;9.342;2023-04-22T01:56:22;12.50;99.90
21744;DHT22;11034;48.556;9.342;2023-04-22T01:58:51;12.60;99.90
21744;DHT22;11034;48.556;9.342;2023-04-22T02:01:19;12.60;99.90
21744;DHT22;11034;48.556;9.342;2023-04-22T02:03:47;12.50;99.90
21744;DHT22;11034;48.556;9.342;2023-04-22T02:06:17;12.40;99.90
21744;DHT22;11034;48.556;9.342;2023-04-22T02:08:45;12.30;99.90
21744;DHT22;11034;48.556;9.342;2023-04-22T02:11:13;12.20;99.90
21744;DHT22;11034;48.556;9.342;2023-04-22T02:13:41;12.10;99.90
21744;DHT22;11034;48.556;9.342;2023-04-22T02:16:11;12.10;99.90
21744;DHT22;11034;48.556;9.342;2023-04-22T02:18:39;11.90;99.90
21744;DHT22;11034;48.556;9.342;2023-04-22T02:21:07;11.80;99.90
21744;DHT22;11034;48.556;9.342;2023-04-22T02:23:36;11.60;99.90
21744;DHT22;11034;48.556;9.342;2023-04-22T02:26:04;11.50;99.90
21744;DHT22;11034;48.556;9.342;2023-04-22T02:28:32;11.40;99.90
21744;DHT22;11034;48.556;9.342;2023-04-22T02:31:00;11.40;99.90
21744;DHT22;11034;48.556;9.342;2023-04-22T02:33:30;11.30;99.90
21744;DHT22;11034;48.556;9.342;2023-04-22T02:35:58;11.10;99.90
21744;DHT22;11034;48.556;9.342;2023-04-22T02:38:26;11.00;99.90
21744;DHT22;11034;48.556;9.342;2023-04-22T02:40:54;10.80;99.90
21744;DHT22;11034;48.556;9.342;2023-04-22T02:43:22;10.70;99.90
21744;DHT22;11034;48.556;9.342;2023-04-22T02:45:50;10.60;99.90
21744;DHT22;11034;48.556;9.342;2023-04-22T02:48:18;10.50;99.90
21744;DHT22;11034;48.556;9.342;2023-04-22T02:50:47;10.50;99.90
21744;DHT22;11034;48.556;9.342;2023-04-22T02:53:15;10.40;99.90
21744;DHT22;11034;48.556;9.342;2023-04-22T02:55:43;10.40;99.90
21744;DHT22;11034;48.556;9.342;2023-04-22T02:58:11;10.40;99.90
21744;DHT22;11034;48.556;9.342;2023-04-22T03:00:39;10.40;99.90
21744;DHT22;11034;48.556;9.342;2023-04-22T03:03:07;10.40;99.90
21744;DHT22;11034;48.556;9.342;2023-04-22T03:05:36;10.30;99.90
21744;DHT22;11034;48.556;9.342;2023-04-22T03:08:06;10.20;99.90
21744;DHT22;11034;48.556;9.342;2023-04-22T03:10:34;10.10;99.90
21744;DHT22;11034;48.556;9.342;2023-04-22T03:13:02;10.00;99.90
21744;DHT22;11034;48.556;9.342;2023-04-22T03:15:30;10.10;99.90
21744;DHT22;11034;48.556;9.342;2023-04-22T03:17:58;10.10;99.90
21744;DHT22;11034;48.556;9.342;2023-04-22T03:20:26;10.00;99.90
21744;DHT22;11034;48.556;9.342;2023-04-22T03:22:54;9.90;99.90
21744;DHT22;11034;48.556;9.342;2023-04-22T03:25:24;9.80;99.90
21744;DHT22;11034;48.556;9.342;2023-04-22T03:27:52;9.70;99.90
21744;DHT22;11034;48.556;9.342;2023-04-22T03:30:20;9.60;99.90
21744;DHT22;11034;48.556;9.342;2023-04-22T03:32:48;9.40;99.90
21744;DHT22;11034;48.556;9.342;2023-04-22T03:35:16;9.30;99.90
21744;DHT22;11034;48.556;9.342;2023-04-22T03:37:45;9.20;99.90
21744;DHT22;11034;48.556;9.342;2023-04-22T03:40:13;9.10;99.90
21744;DHT22;11034;48.556;9.342;2023-04-22T03:42:43;9.10;99.90
21744;DHT22;11034;48.556;9.342;2023-04-22T03:45:11;9.20;99.90
21744;DHT22;11034;48.556;9.342;2023-04-22T03:47:39;9.20;99.90
21744;DHT22;11034;48.556;9.342;2023-04-22T03:50:08;9.30;99.90
21744;DHT22;11034;48.556;9.342;2023-04-22T03:52:36;9.40;99.90
21744;DHT22;11034;48.556;9.342;2023-04-22T03:55:04;9.70;99.90
21744;DHT22;11034;48.556;9.342;2023-04-22T03:57:33;10.00;99.90
21744;DHT22;11034;48.556;9.342;2023-04-22T04:00:03;10.10;99.90
21744;DHT22;11034;48.556;9.342;2023-04-22T04:02:31;10.10;99.90
21744;DHT22;11034;48.556;9.342;2023-04-22T04:05:00;10.20;99.90
21744;DHT22;11034;48.556;9.342;2023-04-22T04:07:29;10.30;99.90
21744;DHT22;11034;48.556;9.342;2023-04-22T04:09:57;10.30;99.90
21744;DHT22;11034;48.556;9.342;2023-04-22T04:12:25;10.30;99.90
21744;DHT22;11034;48.556;9.342;2023-04-22T04:14:53;10.30;99.90
21744;DHT22;11034;48.556;9.342;2023-04-22T04:17:22;10.30;99.90
21744;DHT22;11034;48.556;9.342;2023-04-22T04:19:52;10.40;99.90
21744;DHT22;11034;48.556;9.342;2023-04-22T04:22:20;10.60;99.90
21744;DHT22;11034;48.556;9.342;2023-04-22T04:24:48;10.70;99.90
21744;DHT22;11034;48.556;9.342;2023-04-22T04:27:16;10.80;99.90
21744;DHT22;11034;48.556;9.342;2023-04-22T04:29:44;10.80;99.90
21744;DHT22;11034;48.556;9.342;2023-04-22T04:32:13;10.80;99.90
21744;DHT22;11034;48.556;9.342;2023-04-22T04:34:42;10.70;99.90
21744;DHT22;11034;48.556;9.342;2023-04-22T04:37:10;10.50;99.90
21744;DHT22;11034;48.556;9.342;2023-04-22T04:39:38;10.40;99.90
21744;DHT22;11034;48.556;9.342;2023-04-22T04:42:08;10.20;99.90
21744;DHT22;11034;48.556;9.342;2023-04-22T04:44:37;10.20;99.90
21744;DHT22;11034;48.556;9.342;2023-04-22T04:47:05;10.30;99.90
21744;DHT22;11034;48.556;9.342;2023-04-22T04:49:33;10.70;99.90
21744;DHT22;11034;48.556;9.342;2023-04-22T04:52:07;10.80;99.90
21744;DHT22;11034;48.556;9.342;2023-04-22T04:54:37;10.90;99.90
21744;DHT22;11034;48.556;9.342;2023-04-22T04:57:06;11.00;99.90
21744;DHT22;11034;48.556;9.342;2023-04-22T04:59:35;11.00;99.90
21744;DHT22;11034;48.556;9.342;2023-04-22T05:02:04;11.00;99.90
21744;DHT22;11034;48.556;9.342;2023-04-22T05:04:32;10.90;99.90
21744;DHT22;11034;48.556;9.342;2023-04-22T05:07:01;10.80;99.90
21744;DHT22;11034;48.556;9.342;2023-04-22T05:09:31;10.60;99.90
21744;DHT22;11034;48.556;9.342;2023-04-22T05:12:04;10.50;99.90
21744;DHT22;11034;48.556;9.342;2023-04-22T05:14:32;10.40;99.90
21744;DHT22;11034;48.556;9.342;2023-04-22T05:17:01;10.40;99.90
21744;DHT22;11034;48.556;9.342;2023-04-22T05:19:29;10.30;99.90
21744;DHT22;11034;48.556;9.342;2023-04-22T05:21:58;10.30;99.90
21744;DHT22;11034;48.556;9.342;2023-04-22T05:24:26;10.40;99.90
21744;DHT22;11034;48.556;9.342;2023-04-22T05:26:56;10.70;99.90
21744;DHT22;11034;48.556;9.342;2023-04-22T05:29:24;10.80;99.90
21744;DHT22;11034;48.556;9.342;2023-04-22T05:31:52;10.90;99.90
21744;DHT22;11034;48.556;9.342;2023-04-22T05:34:20;11.00;99.90
21744;DHT22;11034;48.556;9.342;2023-04-22T05:36:48;11.10;99.90
21744;DHT22;11034;48.556;9.342;2023-04-22T05:39:16;11.20;99.90
21744;DHT22;11034;48.556;9.342;2023-04-22T05:41:44;11.20;99.90
21744;DHT22;11034;48.556;9.342;2023-04-22T05:44:14;11.20;99.90
21744;DHT22;11034;48.556;9.342;2023-04-22T05:46:43;11.20;99.90
21744;DHT22;11034;48.556;9.342;2023-04-22T05:49:11;11.30;99.90
21744;DHT22;11034;48.556;9.342;2023-04-22T05:51:39;11.30;99.90
21744;DHT22;11034;48.556;9.342;2023-04-22T05:54:07;11.50;99.90
21744;DHT22;11034;48.556;9.342;2023-04-22T05:56:35;11.50;99.90
21744;DHT22;11034;48.556;9.342;2023-04-22T05:59:03;11.50;99.90
21744;DHT22;11034;48.556;9.342;2023-04-22T06:01:33;11.70;99.90
21744;DHT22;11034;48.556;9.342;2023-04-22T06:04:02;11.90;99.90
21744;DHT22;11034;48.556;9.342;2023-04-22T06:06:32;12.20;99.90
21744;DHT22;11034;48.556;9.342;2023-04-22T06:09:00;12.50;99.90
21744;DHT22;11034;48.556;9.342;2023-04-22T06:11:28;13.00;99.90
21744;DHT22;11034;48.556;9.342;2023-04-22T06:13:57;13.40;99.90
21744;DHT22;11034;48.556;9.342;2023-04-22T06:16:26;13.90;99.90
21744;DHT22;11034;48.556;9.342;2023-04-22T06:18:55;14.50;99.90
21744;DHT22;11034;48.556;9.342;2023-04-22T06:21:23;15.20;99.90
21744;DHT22;11034;48.556;9.342;2023-04-22T06:23:51;16.70;99.90
21744;DHT22;11034;48.556;9.342;2023-04-22T06:26:19;18.00;99.90
21744;DHT22;11034;48.556;9.342;2023-04-22T06:28:48;18.40;99.90
21744;DHT22;11034;48.556;9.342;2023-04-22T06:31:16;18.40;99.90
21744;DHT22;11034;48.556;9.342;2023-04-22T06:33:46;18.10;99.90
21744;DHT22;11034;48.556;9.342;2023-04-22T06:36:16;17.70;99.90
21744;DHT22;11034;48.556;9.342;2023-04-22T06:38:44;16.70;99.90
21744;DHT22;11034;48.556;9.342;2023-04-22T06:41:12;16.30;99.90
21744;DHT22;11034;48.556;9.342;2023-04-22T06:43:40;16.30;99.90
21744;DHT22;11034;48.556;9.342;2023-04-22T06:46:09;16.70;99.90
21744;DHT22;11034;48.556;9.342;2023-04-22T06:48:38;17.00;99.90
21744;DHT22;11034;48.556;9.342;2023-04-22T06:51:06;17.10;99.90
21744;DHT22;11034;48.556;9.342;2023-04-22T06:53:35;17.00;99.90
21744;DHT22;11034;48.556;9.342;2023-04-22T06:56:03;16.70;99.90
21744;DHT22;11034;48.556;9.342;2023-04-22T06:58:32;16.30;99.90
21744;DHT22;11034;48.556;9.342;2023-04-22T07:01:01;16.10;99.90
21744;DHT22;11034;48.556;9.342;2023-04-22T07:03:29;16.10;99.90
21744;DHT22;11034;48.556;9.342;2023-04-22T07:05:58;16.00;99.90
21744;DHT22;11034;48.556;9.342;2023-04-22T07:08:26;15.50;99.90
21744;DHT22;11034;48.556;9.342;2023-04-22T07:10:55;15.40;99.90
21744;DHT22;11034;48.556;9.342;2023-04-22T07:13:24;15.60;99.90
21744;DHT22;11034;48.556;9.342;2023-04-22T07:15:53;15.80;99.90
21744;DHT22;11034;48.556;9.342;2023-04-22T07:18:21;16.10;99.90
21744;DHT22;11034;48.556;9.342;2023-04-22T07:20:49;16.40;99.90
21744;DHT22;11034;48.556;9.342;2023-04-22T07:23:17;16.30;99.90
21744;DHT22;11034;48.556;9.342;2023-04-22T07:25:45;16.30;99.90
21744;DHT22;11034;48.556;9.342;2023-04-22T07:28:15;16.30;99.90
21744;DHT22;11034;48.556;9.342;2023-04-22T07:30:43;16.20;99.90
21744;DHT22;11034;48.556;9.342;2023-04-22T07:33:11;16.10;99.90
21744;DHT22;11034;48.556;9.342;2023-04-22T07:35:39;16.30;99.90
21744;DHT22;11034;48.556;9.342;2023-04-22T07:38:08;16.20;99.90
21744;DHT22;11034;48.556;9.342;2023-04-22T07:40:39;16.00;99.90
21744;DHT22;11034;48.556;9.342;2023-04-22T07:43:07;15.70;99.90
21744;DHT22;11034;48.556;9.342;2023-04-22T07:45:36;15.40;99.90
21744;DHT22;11034;48.556;9.342;2023-04-22T07:48:05;15.30;99.90
21744;DHT22;11034;48.556;9.342;2023-04-22T07:50:33;15.30;99.90
21744;DHT22;11034;48.556;9.342;2023-04-22T07:53:04;15.40;99.90
21744;DHT22;11034;48.556;9.342;2023-04-22T07:55:32;15.60;99.90
21744;DHT22;11034;48.556;9.342;2023-04-22T07:58:00;15.80;99.90
21744;DHT22;11034;48.556;9.342;2023-04-22T08:00:32;16.00;99.90
21744;DHT22;11034;48.556;9.342;2023-04-22T08:03:02;16.10;99.90
21744;DHT22;11034;48.556;9.342;2023-04-22T08:05:30;16.40;99.90
21744;DHT22;11034;48.556;9.342;2023-04-22T08:07:59;16.60;99.90
21744;DHT22;11034;48.556;9.342;2023-04-22T08:10:26;16.60;99.90
21744;DHT22;11034;48.556;9.342;2023-04-22T08:12:55;16.90;99.90
21744;DHT22;11034;48.556;9.342;2023-04-22T08:15:23;17.00;99.90
21744;DHT22;11034;48.556;9.342;2023-04-22T08:17:51;17.20;99.90
21744;DHT22;11034;48.556;9.342;2023-04-22T08:20:21;17.10;99.90
21744;DHT22;11034;48.556;9.342;2023-04-22T08:22:49;17.10;99.90
21744;DHT22;11034;48.556;9.342;2023-04-22T08:25:22;16.90;99.90
21744;DHT22;11034;48.556;9.342;2023-04-22T08:27:51;17.00;99.90
21744;DHT22;11034;48.556;9.342;2023-04-22T08:30:19;17.00;99.90
21744;DHT22;11034;48.556;9.342;2023-04-22T08:32:47;16.80;99.90
21744;DHT22;11034;48.556;9.342;2023-04-22T08:35:15;16.90;99.90
21744;DHT22;11034;48.556;9.342;2023-04-22T08:37:45;16.90;99.90
21744;DHT22;11034;48.556;9.342;2023-04-22T08:40:13;16.70;99.90
21744;DHT22;11034;48.556;9.342;2023-04-22T08:42:43;16.60;99.90
21744;DHT22;11034;48.556;9.342;2023-04-22T08:45:12;16.80;99.90
21744;DHT22;11034;48.556;9.342;2023-04-22T08:47:40;17.00;99.90
21744;DHT22;11034;48.556;9.342;2023-04-22T08:50:10;17.40;99.90
21744;DHT22;11034;48.556;9.342;2023-04-22T08:52:38;17.40;99.90
21744;DHT22;11034;48.556;9.342;2023-04-22T08:55:08;17.50;99.90
21744;DHT22;11034;48.556;9.342;2023-04-22T08:57:37;17.50;99.90
21744;DHT22;11034;48.556;9.342;2023-04-22T09:00:07;17.60;99.90
21744;DHT22;11034;48.556;9.342;2023-04-22T09:02:36;17.60;99.90
21744;DHT22;11034;48.556;9.342;2023-04-22T09:05:05;17.60;99.90
21744;DHT22;11034;48.556;9.342;2023-04-22T09:07:35;17.70;99.90
21744;DHT22;11034;48.556;9.342;2023-04-22T09:10:07;17.80;99.90
21744;DHT22;11034;48.556;9.342;2023-04-22T09:12:39;18.00;99.90
21744;DHT22;11034;48.556;9.342;2023-04-22T09:15:08;18.30;99.90
21744;DHT22;11034;48.556;9.342;2023-04-22T09:17:37;18.30;99.90
21744;DHT22;11034;48.556;9.342;2023-04-22T09:20:06;18.10;99.90
21744;DHT22;11034;48.556;9.342;2023-04-22T09:22:41;18.30;99.90
21744;DHT22;11034;48.556;9.342;2023-04-22T09:25:19;18.40;99.90
21744;DHT22;11034;48.556;9.342;2023-04-22T09:27:48;18.40;99.90
21744;DHT22;11034;48.556;9.342;2023-04-22T09:30:17;18.80;99.90
21744;DHT22;11034;48.556;9.342;2023-04-22T09:32:52;19.00;99.90
21744;DHT22;11034;48.556;9.342;2023-04-22T09:35:29;19.30;99.90
21744;DHT22;11034;48.556;9.342;2023-04-22T09:37:59;19.20;99.90
21744;DHT22;11034;48.556;9.342;2023-04-22T09:40:29;19.30;99.90
21744;DHT22;11034;48.556;9.342;2023-04-22T09:43:00;19.30;99.90
21744;DHT22;11034;48.556;9.342;2023-04-22T09:45:30;19.20;99.90
21744;DHT22;11034;48.556;9.342;2023-04-22T09:48:01;19.10;99.90
21744;DHT22;11034;48.556;9.342;2023-04-22T09:50:29;19.10;99.90
21744;DHT22;11034;48.556;9.342;2023-04-22T09:52:59;19.20;99.90
21744;DHT22;11034;48.556;9.342;2023-04-22T09:55:31;19.40;99.90
21744;DHT22;11034;48.556;9.342;2023-04-22T09:58:05;19.60;99.90
21744;DHT22;11034;48.556;9.342;2023-04-22T10:00:34;19.80;99.90
21744;DHT22;11034;48.556;9.342;2023-04-22T10:03:04;20.00;99.90
21744;DHT22;11034;48.556;9.342;2023-04-22T10:05:36;20.10;99.90
21744;DHT22;11034;48.556;9.342;2023-04-22T10:08:05;20.40;99.90
21744;DHT22;11034;48.556;9.342;2023-04-22T10:10:36;20.30;99.90
21744;DHT22;11034;48.556;9.342;2023-04-22T10:13:05;20.30;99.90
21744;DHT22;11034;48.556;9.342;2023-04-22T10:15:35;20.30;99.90
21744;DHT22;11034;48.556;9.342;2023-04-22T10:18:07;20.60;99.90
21744;DHT22;11034;48.556;9.342;2023-04-22T10:20:40;20.70;99.90
21744;DHT22;11034;48.556;9.342;2023-04-22T10:23:12;20.60;99.90
21744;DHT22;11034;48.556;9.342;2023-04-22T10:25:46;20.80;99.90
21744;DHT22;11034;48.556;9.342;2023-04-22T10:28:16;20.60;99.90
21744;DHT22;11034;48.556;9.342;2023-04-22T10:30:44;20.50;99.90
21744;DHT22;11034;48.556;9.342;2023-04-22T10:33:34;20.60;99.90
21744;DHT22;11034;48.556;9.342;2023-04-22T10:36:08;20.80;99.90
21744;DHT22;11034;48.556;9.342;2023-04-22T10:38:38;20.70;99.90
21744;DHT22;11034;48.556;9.342;2023-04-22T10:41:12;20.60;99.90
21744;DHT22;11034;48.556;9.342;2023-04-22T10:43:42;20.50;99.90
21744;DHT22;11034;48.556;9.342;2023-04-22T10:49:15;20.60;99.90
21744;DHT22;11034;48.556;9.342;2023-04-22T10:51:47;20.90;99.90
21744;DHT22;11034;48.556;9.342;2023-04-22T10:57:20;21.10;99.90
21744;DHT22;11034;48.556;9.342;2023-04-22T10:59:52;21.00;99.90
21744;DHT22;11034;48.556;9.342;2023-04-22T11:02:23;21.10;99.90
21744;DHT22;11034;48.556;9.342;2023-04-22T11:05:17;21.30;99.90
21744;DHT22;11034;48.556;9.342;2023-04-22T11:07:47;21.30;99.90
21744;DHT22;11034;48.556;9.342;2023-04-22T11:10:33;21.40;99.90
21744;DHT22;11034;48.556;9.342;2023-04-22T11:13:04;21.40;99.90
21744;DHT22;11034;48.556;9.342;2023-04-22T11:15:36;21.60;99.90
21744;DHT22;11034;48.556;9.342;2023-04-22T11:18:15;21.80;99.90
21744;DHT22;11034;48.556;9.342;2023-04-22T11:20:44;21.90;99.90
21744;DHT22;11034;48.556;9.342;2023-04-22T11:23:18;22.20;99.90
21744;DHT22;11034;48.556;9.342;2023-04-22T11:25:46;22.20;99.90
21744;DHT22;11034;48.556;9.342;2023-04-22T11:28:19;22.20;99.90
21744;DHT22;11034;48.556;9.342;2023-04-22T11:30:49;22.20;99.90
21744;DHT22;11034;48.556;9.342;2023-04-22T11:33:18;22.10;99.90
21744;DHT22;11034;48.556;9.342;2023-04-22T11:35:48;22.00;99.90
21744;DHT22;11034;48.556;9.342;2023-04-22T11:38:20;22.00;99.90
21744;DHT22;11034;48.556;9.342;2023-04-22T11:40:49;21.90;99.90
21744;DHT22;11034;48.556;9.342;2023-04-22T11:43:18;21.90;99.90
21744;DHT22;11034;48.556;9.342;2023-04-22T11:45:46;21.70;99.90
21744;DHT22;11034;48.556;9.342;2023-04-22T11:48:15;21.60;99.90
21744;DHT22;11034;48.556;9.342;2023-04-22T11:50:43;21.60;99.90
21744;DHT22;11034;48.556;9.342;2023-04-22T11:53:15;21.90;99.90
21744;DHT22;11034;48.556;9.342;2023-04-22T11:55:46;21.90;99.90
21744;DHT22;11034;48.556;9.342;2023-04-22T11:58:22;22.10;99.90
21744;DHT22;11034;48.556;9.342;2023-04-22T12:03:29;22.30;99.90
21744;DHT22;11034;48.556;9.342;2023-04-22T12:05:59;22.40;99.90
21744;DHT22;11034;48.556;9.342;2023-04-22T12:08:30;22.50;99.90
21744;DHT22;11034;48.556;9.342;2023-04-22T12:11:00;22.50;99.90
21744;DHT22;11034;48.556;9.342;2023-04-22T12:13:32;22.30;99.90
21744;DHT22;11034;48.556;9.342;2023-04-22T12:16:02;22.20;99.90
21744;DHT22;11034;48.556;9.342;2023-04-22T12:18:31;22.40;99.90
21744;DHT22;11034;48.556;9.342;2023-04-22T12:21:08;22.90;99.90
21744;DHT22;11034;48.556;9.342;2023-04-22T12:23:41;22.80;99.90
21744;DHT22;11034;48.556;9.342;2023-04-22T12:26:11;22.70;99.90
21744;DHT22;11034;48.556;9.342;2023-04-22T12:28:42;22.60;99.90
21744;DHT22;11034;48.556;9.342;2023-04-22T12:31:10;22.60;99.90
21744;DHT22;11034;48.556;9.342;2023-04-22T12:33:39;22.60;99.90
21744;DHT22;11034;48.556;9.342;2023-04-22T12:36:08;22.80;99.90
21744;DHT22;11034;48.556;9.342;2023-04-22T12:38:36;22.80;99.90
21744;DHT22;11034;48.556;9.342;2023-04-22T12:41:05;22.60;99.90
21744;DHT22;11034;48.556;9.342;2023-04-22T12:43:34;22.60;99.90
21744;DHT22;11034;48.556;9.342;2023-04-22T12:46:06;22.70;99.90
21744;DHT22;11034;48.556;9.342;2023-04-22T12:48:34;22.90;99.90
21744;DHT22;11034;48.556;9.342;2023-04-22T12:51:03;22.80;99.90
21744;DHT22;11034;48.556;9.342;2023-04-22T12:53:32;22.50;99.90
21744;DHT22;11034;48.556;9.342;2023-04-22T12:56:00;22.50;99.80
21744;DHT22;11034;48.556;9.342;2023-04-22T12:58:28;22.40;99.90
21744;DHT22;11034;48.556;9.342;2023-04-22T13:00:57;22.30;99.90
21744;DHT22;11034;48.556;9.342;2023-04-22T13:03:26;22.20;99.80
21744;DHT22;11034;48.556;9.342;2023-04-22T13:05:55;22.40;99.90
21744;DHT22;11034;48.556;9.342;2023-04-22T13:08:23;22.50;99.90
21744;DHT22;11034;48.556;9.342;2023-04-22T13:10:51;22.90;99.90
21744;DHT22;11034;48.556;9.342;2023-04-22T13:13:20;23.00;99.90
21744;DHT22;11034;48.556;9.342;2023-04-22T13:15:48;22.80;99.90
21744;DHT22;11034;48.556;9.342;2023-04-22T13:18:20;22.70;99.90
21744;DHT22;11034;48.556;9.342;2023-04-22T13:20:50;22.60;99.90
21744;DHT22;11034;48.556;9.342;2023-04-22T13:23:18;22.60;99.90
21744;DHT22;11034;48.556;9.342;2023-04-22T13:25:48;22.50;99.90
21744;DHT22;11034;48.556;9.342;2023-04-22T13:28:16;22.50;99.90
21744;DHT22;11034;48.556;9.342;2023-04-22T13:30:44;22.40;99.90
21744;DHT22;11034;48.556;9.342;2023-04-22T13:33:12;22.40;99.70
21744;DHT22;11034;48.556;9.342;2023-04-22T13:35:40;22.20;99.90
21744;DHT22;11034;48.556;9.342;2023-04-22T13:38:10;22.10;99.90
21744;DHT22;11034;48.556;9.342;2023-04-22T13:40:38;22.00;99.90
21744;DHT22;11034;48.556;9.342;2023-04-22T13:43:07;22.00;99.90
21744;DHT22;11034;48.556;9.342;2023-04-22T13:45:35;22.00;99.90
21744;DHT22;11034;48.556;9.342;2023-04-22T13:48:04;21.90;99.90
21744;DHT22;11034;48.556;9.342;2023-04-22T13:50:32;21.80;99.90
21744;DHT22;11034;48.556;9.342;2023-04-22T13:53:01;21.60;99.90
21744;DHT22;11034;48.556;9.342;2023-04-22T13:55:32;21.40;99.90
21744;DHT22;11034;48.556;9.342;2023-04-22T13:58:01;21.30;99.90
21744;DHT22;11034;48.556;9.342;2023-04-22T14:00:31;21.10;99.90
21744;DHT22;11034;48.556;9.342;2023-04-22T14:03:00;20.90;99.90
21744;DHT22;11034;48.556;9.342;2023-04-22T14:05:28;20.70;99.90
21744;DHT22;11034;48.556;9.342;2023-04-22T14:07:58;20.50;99.90
21744;DHT22;11034;48.556;9.342;2023-04-22T14:10:26;20.30;99.90
21744;DHT22;11034;48.556;9.342;2023-04-22T14:12:56;20.30;99.90
21744;DHT22;11034;48.556;9.342;2023-04-22T14:15:24;20.20;99.90
21744;DHT22;11034;48.556;9.342;2023-04-22T14:17:52;20.20;99.90
21744;DHT22;11034;48.556;9.342;2023-04-22T14:20:22;20.10;99.90
21744;DHT22;11034;48.556;9.342;2023-04-22T14:22:51;20.10;99.90
21744;DHT22;11034;48.556;9.342;2023-04-22T14:25:20;20.10;99.90
21744;DHT22;11034;48.556;9.342;2023-04-22T14:27:48;20.10;99.90
21744;DHT22;11034;48.556;9.342;2023-04-22T14:30:18;20.00;99.90
21744;DHT22;11034;48.556;9.342;2023-04-22T14:32:47;19.90;99.90
21744;DHT22;11034;48.556;9.342;2023-04-22T14:35:16;20.00;99.90
21744;DHT22;11034;48.556;9.342;2023-04-22T14:37:44;20.00;99.90
21744;DHT22;11034;48.556;9.342;2023-04-22T14:40:12;20.00;99.90
21744;DHT22;11034;48.556;9.342;2023-04-22T14:42:41;19.90;99.90
21744;DHT22;11034;48.556;9.342;2023-04-22T14:45:10;19.80;99.90
21744;DHT22;11034;48.556;9.342;2023-04-22T14:47:41;19.80;99.90
21744;DHT22;11034;48.556;9.342;2023-04-22T14:50:10;19.70;99.90
21744;DHT22;11034;48.556;9.342;2023-04-22T14:52:38;19.60;99.90
21744;DHT22;11034;48.556;9.342;2023-04-22T14:55:06;19.60;99.90
21744;DHT22;11034;48.556;9.342;2023-04-22T14:57:49;19.80;99.90
21744;DHT22;11034;48.556;9.342;2023-04-22T15:00:17;20.00;99.90
21744;DHT22;11034;48.556;9.342;2023-04-22T15:02:47;20.30;99.90
21744;DHT22;11034;48.556;9.342;2023-04-22T15:05:16;20.40;99.90
21744;DHT22;11034;48.556;9.342;2023-04-22T15:07:44;20.50;99.90
21744;DHT22;11034;48.556;9.342;2023-04-22T15:10:12;20.60;99.90
21744;DHT22;11034;48.556;9.342;2023-04-22T15:12:41;20.70;99.90
21744;DHT22;11034;48.556;9.342;2023-04-22T15:15:09;20.90;99.90
21744;DHT22;11034;48.556;9.342;2023-04-22T15:17:40;20.90;99.90
21744;DHT22;11034;48.556;9.342;2023-04-22T15:20:10;20.80;99.90
21744;DHT22;11034;48.556;9.342;2023-04-22T15:22:39;20.60;99.90
21744;DHT22;11034;48.556;9.342;2023-04-22T15:25:08;20.40;99.90
21744;DHT22;11034;48.556;9.342;2023-04-22T15:27:37;20.50;99.90
21744;DHT22;11034;48.556;9.342;2023-04-22T15:30:06;20.60;99.90
21744;DHT22;11034;48.556;9.342;2023-04-22T15:32:34;20.60;99.90
21744;DHT22;11034;48.556;9.342;2023-04-22T15:35:07;20.50;99.90
21744;DHT22;11034;48.556;9.342;2023-04-22T15:37:36;20.50;99.90
21744;DHT22;11034;48.556;9.342;2023-04-22T15:40:05;20.50;99.90
21744;DHT22;11034;48.556;9.342;2023-04-22T15:42:34;20.30;99.90
21744;DHT22;11034;48.556;9.342;2023-04-22T15:45:03;20.00;99.90
21744;DHT22;11034;48.556;9.342;2023-04-22T15:47:32;19.90;99.90
21744;DHT22;11034;48.556;9.342;2023-04-22T15:50:00;19.70;99.90
21744;DHT22;11034;48.556;9.342;2023-04-22T15:52:32;19.70;99.90
21744;DHT22;11034;48.556;9.342;2023-04-22T15:55:02;19.70;99.90